Aeroporto :
LOGIN :

Iscrizione | Disclaimer

   EN    FR    IT 

 










Sommario :    VFR   VFR Marginale   IFR   IFR Intensivo   IFR Molto Intensivo
Visibilità : 
Base nubi : 
>= 8 km
>= 3000ft
5 / 8 km
1000 / 3000 ft
1500m / 5 km
500 / 1000 ft
800 / 1500m
200 / 500 ft
< 800m
< 200 ft
Simboli :   Temporali  Nebbia  Neve Forte  Precipitazioni Forti  Vento > 20 kt
SIGMETs :   Varie  Temporali  Ghiacco  Turbolenza  Onda orograficha  Ceneri Vulcaniche






- Altitudine del aeroporto : 164 ft
- Codice IATA : VBY


ESSV - Visby

ULTIMO METAR :
  • 040820Z 26012KT CAVOK 04/M01 Q1016

METARs OBSOLETI :
  • 040750Z AUTO 26012KT 9999 NCD 04/M02 Q1016
  • 040720Z AUTO 27012KT 9999 NCD 03/M02 Q1015
  • 040650Z AUTO 27012KT 9999 NCD 03/M01 Q1015
  • 040620Z AUTO 28013KT 9999 NCD 03/M03 Q1014
  • 040550Z AUTO 27011KT 9999 NCD 03/M02 Q1014

TAF TAF ESSV
Valido dal 04 a 06 ore il 04 a 15 ore UTC


040530Z 0406/0415 27011KT CAVOK
BECMG 0406/0408 28015G25KT



MetMap, La meteo Aeronautica in un colpo d'occhio ! - Copyright ORBIFLY Dicembre 2007 - Disclaimer

ORBIFLY MET'MAP TEAM :

Programmazione e sviluppo : Alexandra Zaïnal
Concezione : Baudouin d'Aumeries
Aiuto per la programmazione : Marc-Olivier Méhu
Supporto tecnico e logistico : Manuel Goepfert
Aiuto per la traduzione : Arnaldo La Scala

Contatto : metmap@orbifly.com




FONTI E CREDITI :

   NOAA